Walla Walla Regional Airport
KALW : now visible

Airfield :











YOU CAN JOIN US ON...

 
LOGIN :

Register | Disclaimer

   EN    FR    IT 

 









Legend :    VFR   Marginal VFR   IFR   Intensive IFR   Very Intensive IFR
Visi :
Ceiling :
>= 8 km
>= 3000ft
5 to 8 km
1000 to 3000 ft
1500m to 5 km
500 to 1000 ft
800 to 1500m
200 to 500 ft
< 800m
< 200 ft
Symbols :   Thunderstorms  Fog  Heavy snow  Heavy precipitations  Wind > 20 kt






- Airport Elevation : 1194 ft
- IATA code : ALW


KALW - Walla Walla Regional

CURRENT METAR :
  • 272153Z 29019KT 9SM -RA FEW050 OVC085 18/10 A2979 RMK AO2 PK WND 29028/2126 RAB29 PRESRR SLP086 P0000 T01830100

EXPIRED METARs :
  • 272053Z 29011G16KT 10SM OVC100 24/09 A2974 RMK AO2 SLP067 T02390089 55010
  • 271953Z 32007KT 10SM SCT110 24/06 A2974 RMK AO2 SLP066 T02390061

TAF KALW
Valid from the 27 at 18:00 until the 28 at 18:00 UTC


271736Z 2718/2818 25009KT P6SM OVC070
FM280100 21012G20KT P6SM -RA BKN040 OVC050
FM280700 20012KT P6SM OVC050
KZSE FIR / North America



MET'MAP, your aeronautical weather chart ! - Copyright ORBIFLY December 2007 - Disclaimer

ORBIFLY MET'MAP TEAM :

Programming & Development : Alexandra Zaïnal
Concept & original design : Baudouin d'Aumeries
Assistance for programming : Marc-Olivier Méhu
Technical & hardware support : Manuel Goepfert

Contact : metmap@orbifly.com




SOURCES & CREDITS :

   NOAA       Earth
Advisory